createdAt,value
2024-05-09T00:02:26.584Z,2.70
2024-05-09T00:07:29.275Z,3.15
2024-05-09T00:12:31.759Z,2.97
2024-05-09T00:17:34.517Z,2.72
2024-05-09T00:22:37.411Z,2.90
2024-05-09T00:27:39.835Z,2.78
2024-05-09T00:32:42.631Z,3.08
2024-05-09T00:37:45.265Z,2.78
2024-05-09T00:42:48.089Z,2.70
2024-05-09T00:47:51.396Z,3.30
2024-05-09T00:52:54.244Z,2.97
2024-05-09T00:57:56.852Z,2.85
2024-05-09T01:02:59.456Z,3.22
2024-05-09T01:08:02.353Z,2.63
2024-05-09T01:13:05.953Z,3.33
2024-05-09T01:18:12.677Z,3.08
2024-05-09T01:23:16.744Z,2.80
2024-05-09T01:28:19.396Z,2.60
2024-05-09T01:33:22.008Z,3.85
2024-05-09T01:38:24.485Z,2.90
2024-05-09T01:43:26.913Z,2.80
2024-05-09T01:48:29.396Z,2.65
2024-05-09T01:53:31.947Z,3.00
2024-05-09T01:58:34.390Z,3.05
2024-05-09T02:03:36.853Z,3.53
2024-05-09T02:08:39.937Z,2.80
2024-05-09T02:13:42.480Z,3.13
2024-05-09T02:18:44.982Z,2.80
2024-05-09T02:23:47.436Z,2.85
2024-05-09T02:28:49.901Z,3.22
2024-05-09T02:33:52.926Z,3.13
2024-05-09T02:38:55.724Z,2.70
2024-05-09T02:43:58.104Z,2.70
2024-05-09T02:49:00.609Z,2.72
2024-05-09T02:54:03.114Z,2.80
2024-05-09T02:59:05.536Z,2.50
2024-05-09T03:04:08.156Z,2.45
2024-05-09T03:09:10.964Z,2.38
2024-05-09T03:14:17.302Z,2.08
2024-05-09T03:19:19.977Z,2.40
2024-05-09T03:24:22.460Z,2.45
2024-05-09T03:29:25.132Z,3.60
2024-05-09T03:34:27.670Z,3.10
2024-05-09T03:39:30.046Z,3.30
2024-05-09T03:44:32.591Z,3.33
2024-05-09T03:49:35.110Z,3.10
2024-05-09T03:54:44.914Z,2.95
2024-05-09T03:59:47.326Z,3.28
2024-05-09T04:04:49.808Z,3.38
2024-05-09T04:09:52.298Z,3.28
2024-05-09T04:14:54.624Z,2.67
2024-05-09T04:19:57.012Z,3.28
2024-05-09T04:24:59.407Z,3.85
2024-05-09T04:30:02.007Z,3.63
2024-05-09T04:35:04.694Z,3.33
2024-05-09T04:40:11.280Z,3.65
2024-05-09T04:45:16.540Z,3.53
2024-05-09T04:50:28.929Z,4.00
2024-05-09T04:55:36.789Z,4.50
2024-05-09T05:00:40.486Z,3.50
2024-05-09T05:05:45.189Z,3.78
2024-05-09T05:10:49.303Z,4.50
2024-05-09T05:15:56.953Z,3.53
2024-05-09T05:21:00.526Z,3.40
2024-05-09T05:26:03.076Z,2.75
2024-05-09T05:31:05.613Z,4.05
2024-05-09T05:36:08.444Z,2.88
2024-05-09T05:41:11.020Z,3.03
2024-05-09T05:46:13.471Z,2.58
2024-05-09T05:51:16.091Z,2.58
2024-05-09T05:56:18.688Z,2.80
2024-05-09T06:01:21.222Z,3.08
2024-05-09T06:06:23.671Z,2.38
2024-05-09T06:11:26.292Z,2.67
2024-05-09T06:16:28.836Z,2.55
2024-05-09T06:21:31.286Z,4.57
2024-05-09T06:26:33.878Z,2.47
2024-05-09T06:31:43.343Z,1.90
2024-05-09T06:36:45.734Z,2.25
2024-05-09T06:41:48.122Z,1.90
2024-05-09T06:46:50.653Z,2.38
2024-05-09T06:51:53.228Z,2.10
2024-05-09T06:56:55.615Z,1.92
2024-05-09T07:01:58.127Z,2.67
2024-05-09T07:07:00.635Z,2.33
2024-05-09T07:12:04.051Z,2.10
2024-05-09T07:17:06.739Z,1.95
2024-05-09T07:22:09.265Z,2.15
2024-05-09T07:27:11.826Z,1.90
2024-05-09T07:32:14.330Z,1.83
2024-05-09T07:37:16.977Z,2.08
2024-05-09T07:42:19.674Z,2.42
2024-05-09T07:48:56.525Z,2.17
2024-05-09T07:53:34.394Z,2.03
2024-05-09T07:58:07.001Z,1.70
2024-05-09T08:03:10.721Z,1.90
2024-05-09T08:08:13.211Z,2.08
2024-05-09T08:13:15.655Z,1.83
2024-05-09T08:18:18.331Z,2.58
2024-05-09T08:23:20.846Z,1.73
2024-05-09T08:28:23.475Z,2.00
2024-05-09T08:33:26.111Z,1.90
2024-05-09T08:38:28.627Z,2.38
2024-05-09T08:43:31.270Z,1.98
2024-05-09T08:48:37.101Z,1.85
2024-05-09T08:53:39.663Z,1.48
2024-05-09T08:58:43.108Z,2.00
2024-05-09T09:03:46.317Z,1.95
2024-05-09T09:08:49.734Z,1.45
2024-05-09T09:13:52.174Z,1.73
2024-05-09T09:18:58.023Z,2.03
2024-05-09T09:24:00.669Z,2.05
2024-05-09T09:29:03.295Z,1.88
2024-05-09T09:34:09.832Z,1.98
2024-05-09T09:39:17.531Z,2.38
2024-05-09T09:44:20.221Z,2.45
2024-05-09T09:49:24.856Z,2.20
2024-05-09T09:54:30.920Z,2.08
2024-05-09T09:59:36.077Z,2.60
2024-05-09T10:04:38.846Z,2.15
2024-05-09T10:09:43.067Z,2.50
2024-05-09T10:14:49.011Z,2.30
2024-05-09T10:19:51.566Z,2.08
2024-05-09T10:24:55.382Z,2.97
2024-05-09T10:29:59.513Z,2.78
2024-05-09T10:35:12.752Z,2.42
2024-05-09T10:40:26.587Z,2.70
2024-05-09T10:45:36.030Z,2.70
2024-05-09T10:50:43.985Z,2.95
2024-05-09T10:55:57.071Z,2.87
2024-05-09T11:01:01.171Z,3.50
2024-05-09T11:06:05.947Z,3.28
2024-05-09T11:11:09.258Z,3.60
2024-05-09T11:16:21.696Z,3.25
2024-05-09T11:21:24.912Z,3.28
2024-05-09T11:26:29.822Z,3.30
2024-05-09T11:31:32.407Z,2.90
2024-05-09T11:36:35.001Z,3.10
2024-05-09T11:41:38.042Z,3.70
2024-05-09T11:46:40.720Z,3.10
2024-05-09T11:51:43.241Z,3.15
2024-05-09T11:56:45.739Z,3.65
2024-05-09T12:01:48.199Z,3.33
2024-05-09T12:06:50.823Z,3.20
2024-05-09T12:11:53.404Z,2.83
2024-05-09T12:16:55.878Z,3.45
2024-05-09T12:21:58.461Z,3.05
2024-05-09T12:27:00.916Z,3.70
2024-05-09T12:32:03.368Z,3.65
2024-05-09T12:37:05.956Z,4.40
2024-05-09T12:42:09.754Z,4.07
2024-05-09T12:47:13.423Z,4.32
2024-05-09T12:52:15.911Z,4.20
2024-05-09T12:57:18.356Z,4.07
2024-05-09T13:02:21.174Z,4.30
2024-05-09T13:07:24.217Z,4.57
2024-05-09T13:12:27.567Z,5.07
2024-05-09T13:17:30.240Z,4.85
2024-05-09T13:22:32.848Z,4.57
2024-05-09T13:27:35.297Z,4.43
2024-05-09T13:32:37.823Z,5.22
2024-05-09T13:37:40.443Z,4.90
2024-05-09T13:42:43.487Z,5.20
2024-05-09T13:47:47.053Z,5.05
2024-05-09T13:52:49.737Z,5.57
2024-05-09T13:57:52.415Z,5.15
2024-05-09T14:02:55.191Z,4.97
2024-05-09T14:07:58.805Z,5.45
2024-05-09T14:13:01.863Z,5.25
2024-05-09T14:18:04.551Z,4.85
2024-05-09T14:23:07.029Z,5.20
2024-05-09T14:28:10.472Z,5.47
2024-05-09T14:33:13.057Z,4.97
2024-05-09T14:38:15.538Z,5.28
2024-05-09T14:43:18.650Z,5.38
2024-05-09T14:48:21.550Z,5.72
2024-05-09T14:53:24.130Z,5.65
2024-05-09T14:58:26.841Z,5.35
2024-05-09T15:03:29.446Z,6.18
2024-05-09T15:08:32.214Z,5.60
2024-05-09T15:13:34.693Z,5.05
2024-05-09T15:18:38.714Z,5.65
2024-05-09T15:23:42.347Z,5.03
2024-05-09T15:28:44.892Z,5.13
2024-05-09T15:33:47.383Z,4.68
2024-05-09T15:38:50.501Z,5.80
2024-05-09T15:43:52.960Z,4.82
2024-05-09T15:48:55.643Z,5.93
2024-05-09T15:53:58.181Z,5.60
2024-05-09T15:59:01.140Z,4.85
2024-05-09T16:04:03.792Z,4.93
2024-05-09T16:09:06.939Z,5.28
2024-05-09T16:14:09.520Z,6.88
2024-05-09T16:19:12.167Z,5.63
2024-05-09T16:24:14.786Z,6.53
2024-05-09T16:29:17.230Z,5.82
2024-05-09T16:34:19.933Z,5.85
2024-05-09T16:39:24.833Z,5.88
2024-05-09T16:44:27.224Z,7.72
2024-05-09T16:49:30.210Z,7.78
2024-05-09T16:54:32.779Z,6.78
2024-05-09T16:59:35.236Z,6.88
2024-05-09T17:04:37.862Z,6.38
2024-05-09T17:09:40.391Z,5.95
2024-05-09T17:14:42.889Z,6.57
2024-05-09T17:19:47.690Z,5.80
2024-05-09T17:24:50.275Z,6.45
2024-05-09T17:29:53.043Z,7.30
2024-05-09T17:34:55.574Z,6.28
2024-05-09T17:39:58.582Z,6.53
2024-05-09T17:45:01.191Z,7.38
2024-05-09T17:50:11.783Z,5.95
2024-05-09T17:55:19.820Z,7.53
2024-05-09T18:00:32.726Z,6.93
2024-05-09T18:05:41.812Z,7.00
2024-05-09T18:10:45.399Z,6.68
2024-05-09T18:15:47.870Z,6.65
2024-05-09T18:20:50.380Z,7.15
2024-05-09T18:25:54.987Z,8.45
2024-05-09T18:30:57.482Z,8.15
2024-05-09T18:35:59.969Z,7.25
2024-05-09T18:41:02.739Z,8.07
2024-05-09T18:46:05.631Z,7.25
2024-05-09T18:51:08.138Z,7.32
2024-05-09T18:56:10.686Z,6.90
2024-05-09T19:01:13.355Z,7.25
2024-05-09T19:06:15.877Z,6.75
2024-05-09T19:11:18.329Z,7.38
2024-05-09T19:16:20.932Z,8.88
2024-05-09T19:21:23.299Z,7.07
2024-05-09T19:26:26.048Z,7.28
2024-05-09T19:31:29.229Z,7.80
2024-05-09T19:36:32.206Z,8.18
2024-05-09T19:41:34.755Z,6.57
2024-05-09T19:46:38.268Z,6.65
2024-05-09T19:51:41.786Z,7.13
2024-05-09T19:56:47.845Z,7.00
2024-05-09T20:01:54.109Z,6.93
2024-05-09T20:06:56.680Z,6.45
2024-05-09T20:11:59.256Z,6.88
2024-05-09T20:17:01.766Z,6.90
2024-05-09T20:22:04.316Z,6.75
2024-05-09T20:27:06.802Z,6.30
2024-05-09T20:32:09.328Z,6.68
2024-05-09T20:37:11.842Z,5.80
2024-05-09T20:42:14.372Z,6.10
2024-05-09T20:47:16.832Z,6.18
2024-05-09T20:52:19.372Z,5.28
2024-05-09T20:57:23.228Z,5.57
2024-05-09T21:02:25.895Z,5.47
2024-05-09T21:07:28.442Z,5.53
2024-05-09T21:12:30.946Z,5.97
2024-05-09T21:17:33.434Z,6.22
2024-05-09T21:22:35.966Z,6.25
2024-05-09T21:27:38.732Z,7.10
2024-05-09T21:32:41.268Z,5.88
2024-05-09T21:37:43.731Z,6.60
2024-05-09T21:42:46.208Z,5.90
2024-05-09T21:47:48.726Z,6.47
2024-05-09T21:52:51.326Z,6.03
2024-05-09T21:57:53.833Z,5.55
2024-05-09T22:02:56.276Z,5.93
2024-05-09T22:07:58.697Z,6.82
2024-05-09T22:13:01.252Z,7.30
2024-05-09T22:18:04.177Z,6.05
2024-05-09T22:23:07.121Z,6.07
2024-05-09T22:28:10.261Z,7.10
2024-05-09T22:33:13.035Z,6.72
2024-05-09T22:38:15.633Z,6.25
2024-05-09T22:43:23.739Z,6.40
2024-05-09T22:48:27.756Z,6.78
2024-05-09T22:53:30.200Z,6.63
2024-05-09T22:58:32.600Z,7.45
2024-05-09T23:03:35.199Z,7.03
2024-05-09T23:08:37.829Z,6.60
2024-05-09T23:13:40.202Z,7.90
2024-05-09T23:18:42.700Z,7.35
2024-05-09T23:23:45.142Z,6.60
2024-05-09T23:28:48.972Z,7.07
2024-05-09T23:33:51.743Z,7.07
2024-05-09T23:38:54.283Z,6.53
2024-05-09T23:43:56.648Z,6.40
2024-05-09T23:48:59.191Z,7.22
2024-05-09T23:54:01.660Z,6.28
2024-05-09T23:59:04.082Z,7.30
